• Join FlightAware (Why Join?)
  • Login
  • US Flag 
03:04AM EDT


 

Airport Tracker/Info


-or-


 

Live Flight TrackerFlight Track Log ✈ EJA396 ✈ 10-Jun-2013 ✈ KSDL - KSJC

Flight Track Log - Related Links

Times and Time Zones

All times are in EDT time to prevent confusion due to time zone crossing. See the EJA396 flight status page for this flight to view local times or setup timezone preferences in your user account.

Time Position Orientation Groundspeed Altitude Reporting Facility
EDT Latitude Longitude Course Direction KTS MPH feet Rate Location/Type
02:37PM 33.6167 -111.9333 301° West 169 194 2,500  Level Phoenix TRACON
02:38PM 33.6333 -111.9667 301° West 207 238 3,900 1,920 Climbing Phoenix TRACON
02:38PM 33.6381 -112.0131 277° West 208 239 5,100 1,140 Climbing Albuquerque Center
02:39PM 33.6614 -112.0808 292° West 218 251 5,900 600 Climbing Albuquerque Center
02:40PM 33.7050 -112.1333 315° West 238 274 6,400 1,320 Climbing Albuquerque Center
02:41PM 33.7742 -112.1775 332° Northwest 279 321 8,700 2,580 Climbing Albuquerque Center
02:42PM 33.8494 -112.2225 334° Northwest 298 343 11,800 2,880 Climbing Albuquerque Center
02:43PM 33.9314 -112.2739 333° Northwest 326 375 14,700 2,580 Climbing Albuquerque Center
02:44PM 34.0206 -112.3297 333° Northwest 358 412 17,200 2,580 Climbing Albuquerque Center
02:45PM 34.1333 -112.4006 333° Northwest 380 437 20,000 2,220 Climbing Albuquerque Center
02:46PM 34.2336 -112.4603 334° Northwest 398 458 21,800 1,740 Climbing Albuquerque Center
02:48PM 34.3183 -112.5494 319° Northwest 408 470 23,600 1,740 Climbing Albuquerque Center
02:49PM 34.3797 -112.6678 302° West 414 476 25,400 1,740 Climbing Albuquerque Center
02:50PM 34.4411 -112.7883 302° West 420 483 27,200 1,800 Climbing Albuquerque Center
02:51PM 34.5142 -112.9269 303° West 427 491 29,200 1,680 Climbing Albuquerque Center
02:52PM 34.5778 -113.0508 302° West 432 497 30,700 1,440 Climbing Albuquerque Center
02:53PM 34.6417 -113.1775 302° West 437 503 32,200 1,440 Climbing Albuquerque Center
02:54PM 34.7053 -113.3025 302° West 438 504 33,700 1,440 Climbing Albuquerque Center
02:55PM 34.7700 -113.4242 303° West 432 497 35,200 1,080 Climbing Albuquerque Center
02:56PM 34.8461 -113.5411 308° West 438 504 36,000 360 Climbing Albuquerque Center
02:57PM 34.9222 -113.6631 307° West 448 516 36,000 240 Level Albuquerque Center
02:58PM 34.9994 -113.7844 308° West 451 519 36,500 480 Climbing Albuquerque Center
02:59PM 35.0906 -113.9297 307° West 451 519 37,000 300 Climbing Albuquerque Center
03:00PM 35.1792 -114.0689 308° West 457 526 37,200 420 Climbing Los Angeles Center
03:01PM 35.2558 -114.1900 308° West 452 520 38,000 360 Climbing Los Angeles Center
03:02PM 35.3328 -114.3119 308° West 452 520 38,000  Level Los Angeles Center
03:03PM 35.4242 -114.4597 307° West 452 520 38,000  Level Los Angeles Center
03:04PM 35.5008 -114.5861 307° West 460 529 38,000  Level Los Angeles Center
03:05PM 35.5781 -114.7103 307° West 458 527 38,000  Level Los Angeles Center
03:06PM 35.6556 -114.8358 307° West 460 529 38,000  Level Los Angeles Center
03:07PM 35.7322 -114.9589 308° West 454 522 38,000  Level Los Angeles Center
03:08PM 35.8083 -115.0831 307° West 453 521 38,000  Level Los Angeles Center
03:09PM 35.9003 -115.2342 307° West 458 527 38,000  Level Los Angeles Center
03:10PM 35.9775 -115.3614 307° West 460 529 38,000  Level Los Angeles Center
03:11PM 36.0356 -115.4969 298° West 447 514 38,000  Level Los Angeles Center
03:12PM 36.0758 -115.6442 289° West 445 512 38,000  Level Los Angeles Center
03:13PM 36.1164 -115.7919 289° West 446 513 38,000  Level Los Angeles Center
03:14PM 36.1825 -115.9300 301° West 457 526 38,000  Level Los Angeles Center
03:16PM 36.2464 -116.0667 300° West 457 526 38,000  Level Los Angeles Center
03:17PM 36.3100 -116.2017 300° West 455 524 38,000  Level Los Angeles Center
03:18PM 36.3761 -116.3389 301° West 451 519 38,000  Level Los Angeles Center
03:19PM 36.4394 -116.4756 300° West 455 524 38,000  Level Los Angeles Center
03:20PM 36.5033 -116.6106 301° West 456 525 38,000  Level Los Angeles Center
03:21PM 36.5697 -116.7753 297° West 458 527 38,000  Level Los Angeles Center
03:22PM 36.6011 -116.9242 285° West 448 516 38,000  Level Los Angeles Center
03:23PM 36.6289 -117.0675 284° West 437 503 38,000  Level Los Angeles Center
03:24PM 36.6578 -117.2153 284° West 438 504 38,000  Level Los Angeles Center
03:25PM 36.6864 -117.3653 283° West 441 507 38,000  Level Los Angeles Center
03:26PM 36.7211 -117.5469 283° West 445 512 38,000  Level Los Angeles Center
03:27PM 36.7503 -117.6997 283° West 449 517 38,000  Level Los Angeles Center
03:27PM 36.7608 -117.7658 281° West 453 521 38,000  Level Oakland Center
03:28PM 36.7892 -117.9147 283° West 444 511 38,000  Level Oakland Center
03:29PM 36.8069 -118.0064 284° West 446 513 38,000  Level Los Angeles Center
03:30PM 36.8350 -118.1583 283° West 447 514 38,000  Level Los Angeles Center
03:31PM 36.8633 -118.3122 283° West 453 521 38,000  Level Los Angeles Center
03:31PM 36.8767 -118.3989 281° West 447 514 38,000 -420 Level Oakland Center
03:32PM 36.8986 -118.5233 282° West 444 511 37,400 -1,260 Descending Oakland Center
03:33PM 36.9311 -118.7028 283° West 446 513 35,500 -1,920 Descending Oakland Center
03:35PM 36.9572 -118.8517 282° West 439 505 33,600 -1,920 Descending Oakland Center
03:36PM 36.9836 -119.0044 282° West 450 518 31,700 -1,860 Descending Oakland Center
03:37PM 37.0097 -119.1544 282° West 446 513 29,900 -1,800 Descending Oakland Center
03:38PM 37.0367 -119.3078 282° West 452 520 28,100 -1,800 Descending Oakland Center
03:39PM 37.0619 -119.4586 282° West 449 517 26,300 -1,800 Descending Oakland Center
03:40PM 37.0875 -119.6053 282° West 438 504 24,500 -1,800 Descending Oakland Center
03:41PM 37.1117 -119.7478 282° West 426 490 22,700 -1,740 Descending Oakland Center
03:42PM 37.1372 -119.8881 283° West 415 478 21,000 -1,560 Descending Oakland Center
03:43PM 37.1614 -120.0461 281° West 384 442 19,600 -1,440 Descending Oakland Center
03:44PM 37.1811 -120.1644 282° West 351 404 18,100 -1,500 Descending Oakland Center
03:45PM 37.1964 -120.2767 280° West 320 368 16,600 -1,620 Descending Oakland Center
03:46PM 37.2150 -120.3919 281° West 335 386 14,900 -1,560 Descending Oakland Center
03:46PM 37.2000 -120.4833 258° West 405 466 13,900 -1,380 Descending Northern Cal TRACON
03:47PM 37.1833 -120.6000 260° West 340 391 12,600 -1,380 Descending Northern Cal TRACON
03:48PM 37.1500 -120.7000 247° West 316 364 11,200 -1,320 Descending Northern Cal TRACON
03:49PM 37.1333 -120.8167 260° West 318 366 10,000 -600 Descending Northern Cal TRACON
03:51PM 37.1000 -120.9333 250° West 327 376 10,000  Level Northern Cal TRACON
03:51PM 37.1025 -120.9469 283° West 310 357 10,000  Level Oakland Center
03:52PM 37.0775 -121.0628 255° West 336 387 10,000  Level Oakland Center
03:53PM 37.0500 -121.1839 254° West 337 388 10,000 -120 Level Oakland Center
03:54PM 37.0317 -121.2978 259° West 338 389 9,800 -720 Descending Oakland Center
03:55PM 37.0364 -121.3953 274° West 291 335 8,600 -900 Descending Oakland Center
03:56PM 37.0414 -121.4886 274° West 271 312 8,000 -300 Descending Oakland Center
03:57PM 37.0458 -121.5828 273° West 272 313 8,000 -60 Level Oakland Center
03:58PM 37.0514 -121.6936 274° West 269 310 7,900 -240 Descending Oakland Center
03:59PM 37.0961 -121.7561 312° West 264 304 7,600 -780 Descending Oakland Center
04:00PM 37.1333 -121.8000 317° Northwest 254 292 6,700 -1,620 Descending Northern Cal TRACON
04:00PM 37.1486 -121.8208 313° West 254 292 6,000 -1,140 Descending Oakland Center
04:01PM 37.1997 -121.8817 317° Northwest 253 291 5,000 -540 Descending Oakland Center
04:02PM 37.2506 -121.9247 326° Northwest 228 262 5,000 -660 Level Oakland Center
04:03PM 37.2975 -121.9744 320° Northwest 219 252 3,700 -1,020 Descending Oakland Center
04:04PM 37.3414 -122.0286 316° Northwest 221 254 3,000 -660 Descending Oakland Center
04:05PM 37.3856 -122.0758 320° Northwest 215 247 2,400 -360 Descending Oakland Center
04:06PM 37.4167 -122.0500 33° Northeast 209 241 2,500 -300 Climbing Northern Cal TRACON
04:07PM 37.4333 -122.0000 67° East 212 244 2,000 -1,080 Descending Northern Cal TRACON
04:08PM 37.3833 -121.9500 142° Southeast 142 163 500 10,980 Descending Northern Cal TRACON
04:08PM 37.3675 -121.9381 149° Southeast 149 171 20,000 30,780 Climbing Oakland Center
04:10PM 37.3627 -121.9291 130° Southeast  Level Estimated